sensor_id;sensor_type;location;lat;lon;timestamp;pressure;altitude;pressure_sealevel;temperature;humidity
84639;BME280;74869;51.924;5.712;2024-03-17T00:00:22;102408.00;;;4.11;81.28
84639;BME280;74869;51.924;5.712;2024-03-17T00:02:47;102401.09;;;4.10;81.80
84639;BME280;74869;51.924;5.712;2024-03-17T00:05:14;102404.97;;;4.14;81.48
84639;BME280;74869;51.924;5.712;2024-03-17T00:07:39;102408.88;;;4.18;82.38
84639;BME280;74869;51.924;5.712;2024-03-17T00:10:05;102405.00;;;4.20;81.39
84639;BME280;74869;51.924;5.712;2024-03-17T00:12:35;102410.31;;;4.20;82.30
84639;BME280;74869;51.924;5.712;2024-03-17T00:15:00;102399.25;;;4.17;81.71
84639;BME280;74869;51.924;5.712;2024-03-17T00:17:26;102382.47;;;4.10;81.93
84639;BME280;74869;51.924;5.712;2024-03-17T00:19:51;102393.09;;;4.16;82.09
84639;BME280;74869;51.924;5.712;2024-03-17T00:22:16;102394.38;;;4.20;82.07
84639;BME280;74869;51.924;5.712;2024-03-17T00:24:45;102391.06;;;4.18;81.71
84639;BME280;74869;51.924;5.712;2024-03-17T00:27:10;102387.59;;;4.18;82.56
84639;BME280;74869;51.924;5.712;2024-03-17T00:29:37;102384.56;;;4.21;82.59
84639;BME280;74869;51.924;5.712;2024-03-17T00:32:02;102387.00;;;4.16;82.01
84639;BME280;74869;51.924;5.712;2024-03-17T00:34:28;102389.47;;;4.24;82.06
84639;BME280;74869;51.924;5.712;2024-03-17T00:36:53;102382.09;;;4.19;82.74
84639;BME280;74869;51.924;5.712;2024-03-17T00:39:18;102387.81;;;4.23;82.31
84639;BME280;74869;51.924;5.712;2024-03-17T00:41:44;102372.28;;;4.20;82.51
84639;BME280;74869;51.924;5.712;2024-03-17T00:44:09;102369.00;;;4.18;82.39
84639;BME280;74869;51.924;5.712;2024-03-17T00:46:35;102363.69;;;4.18;81.90
84639;BME280;74869;51.924;5.712;2024-03-17T00:49:00;102375.16;;;4.25;82.01
84639;BME280;74869;51.924;5.712;2024-03-17T00:51:26;102388.63;;;4.23;82.73
84639;BME280;74869;51.924;5.712;2024-03-17T00:53:51;102377.00;;;4.24;82.06
84639;BME280;74869;51.924;5.712;2024-03-17T00:56:17;102338.06;;;4.03;82.16
84639;BME280;74869;51.924;5.712;2024-03-17T00:58:42;102383.75;;;4.27;82.04
84639;BME280;74869;51.924;5.712;2024-03-17T01:01:09;102356.34;;;4.20;82.43
84639;BME280;74869;51.924;5.712;2024-03-17T01:03:35;102372.53;;;4.31;82.14
84639;BME280;74869;51.924;5.712;2024-03-17T01:06:03;102363.72;;;4.31;82.90
84639;BME280;74869;51.924;5.712;2024-03-17T01:08:29;102365.78;;;4.29;83.14
84639;BME280;74869;51.924;5.712;2024-03-17T01:10:55;102352.69;;;4.27;82.51
84639;BME280;74869;51.924;5.712;2024-03-17T01:13:20;102366.19;;;4.32;82.75
84639;BME280;74869;51.924;5.712;2024-03-17T01:15:46;102343.66;;;4.22;82.62
84639;BME280;74869;51.924;5.712;2024-03-17T01:18:16;102348.34;;;4.20;82.92
84639;BME280;74869;51.924;5.712;2024-03-17T01:20:42;102356.75;;;4.23;83.40
84639;BME280;74869;51.924;5.712;2024-03-17T01:23:07;102360.44;;;4.22;82.90
84639;BME280;74869;51.924;5.712;2024-03-17T01:25:33;102353.25;;;4.23;82.75
84639;BME280;74869;51.924;5.712;2024-03-17T01:28:04;102352.63;;;4.14;83.04
84639;BME280;74869;51.924;5.712;2024-03-17T01:30:30;102357.97;;;4.21;83.63
84639;BME280;74869;51.924;5.712;2024-03-17T01:32:57;102314.13;;;3.97;83.62
84639;BME280;74869;51.924;5.712;2024-03-17T01:35:24;102329.91;;;4.05;82.99
84639;BME280;74869;51.924;5.712;2024-03-17T01:37:49;102331.34;;;4.08;83.18
84639;BME280;74869;51.924;5.712;2024-03-17T01:40:14;102321.09;;;4.04;83.44
84639;BME280;74869;51.924;5.712;2024-03-17T01:42:41;102334.84;;;4.15;83.46
84639;BME280;74869;51.924;5.712;2024-03-17T01:47:41;102332.19;;;4.15;83.87
84639;BME280;74869;51.924;5.712;2024-03-17T01:50:07;102295.91;;;3.87;83.68
84639;BME280;74869;51.924;5.712;2024-03-17T01:52:34;102350.38;;;4.11;83.53
84639;BME280;74869;51.924;5.712;2024-03-17T01:54:59;102297.34;;;3.83;84.02
84639;BME280;74869;51.924;5.712;2024-03-17T01:57:25;102291.56;;;3.73;84.19
84639;BME280;74869;51.924;5.712;2024-03-17T01:59:51;102288.13;;;3.79;83.75
84639;BME280;74869;51.924;5.712;2024-03-17T02:02:16;102317.41;;;3.99;83.95
84639;BME280;74869;51.924;5.712;2024-03-17T02:04:42;102328.06;;;4.06;83.65
84639;BME280;74869;51.924;5.712;2024-03-17T02:07:07;102273.38;;;3.70;83.75
84639;BME280;74869;51.924;5.712;2024-03-17T02:09:33;102322.75;;;4.06;84.48
84639;BME280;74869;51.924;5.712;2024-03-17T02:11:58;102319.47;;;4.03;83.82
84639;BME280;74869;51.924;5.712;2024-03-17T02:14:23;102282.19;;;3.77;83.89
84639;BME280;74869;51.924;5.712;2024-03-17T02:16:48;102324.41;;;4.07;84.53
84639;BME280;74869;51.924;5.712;2024-03-17T02:19:14;102274.41;;;3.69;85.07
84639;BME280;74869;51.924;5.712;2024-03-17T02:21:39;102294.91;;;3.88;83.99
84639;BME280;74869;51.924;5.712;2024-03-17T02:24:04;102302.75;;;4.10;85.06
84639;BME280;74869;51.924;5.712;2024-03-17T02:26:30;102298.84;;;4.06;84.66
84639;BME280;74869;51.924;5.712;2024-03-17T02:28:55;102300.06;;;3.96;84.41
84639;BME280;74869;51.924;5.712;2024-03-17T02:31:20;102271.41;;;3.92;84.90
84639;BME280;74869;51.924;5.712;2024-03-17T02:33:47;102312.78;;;4.21;84.51
84639;BME280;74869;51.924;5.712;2024-03-17T02:36:12;102280.41;;;3.97;84.33
84639;BME280;74869;51.924;5.712;2024-03-17T02:38:41;102267.13;;;4.04;84.56
84639;BME280;74869;51.924;5.712;2024-03-17T02:41:26;102297.88;;;4.33;84.63
84639;BME280;74869;51.924;5.712;2024-03-17T02:43:53;102295.03;;;4.41;85.14
84639;BME280;74869;51.924;5.712;2024-03-17T02:46:19;102300.38;;;4.48;84.95
84639;BME280;74869;51.924;5.712;2024-03-17T02:48:47;102289.13;;;4.52;84.98
84639;BME280;74869;51.924;5.712;2024-03-17T02:51:17;102287.69;;;4.56;85.36
84639;BME280;74869;51.924;5.712;2024-03-17T02:53:45;102281.53;;;4.56;84.69
84639;BME280;74869;51.924;5.712;2024-03-17T02:56:11;102275.81;;;4.59;85.03
84639;BME280;74869;51.924;5.712;2024-03-17T02:58:38;102284.81;;;4.64;85.01
84639;BME280;74869;51.924;5.712;2024-03-17T03:01:04;102282.97;;;4.58;85.05
84639;BME280;74869;51.924;5.712;2024-03-17T03:03:33;102276.63;;;4.59;85.19
84639;BME280;74869;51.924;5.712;2024-03-17T03:05:59;102264.38;;;4.58;84.90
84639;BME280;74869;51.924;5.712;2024-03-17T03:08:32;102260.25;;;4.62;84.70
84639;BME280;74869;51.924;5.712;2024-03-17T03:10:59;102255.38;;;4.59;85.27
84639;BME280;74869;51.924;5.712;2024-03-17T03:13:24;102285.22;;;4.81;84.93
84639;BME280;74869;51.924;5.712;2024-03-17T03:15:51;102254.13;;;4.68;85.15
84639;BME280;74869;51.924;5.712;2024-03-17T03:18:16;102273.75;;;4.80;84.38
84639;BME280;74869;51.924;5.712;2024-03-17T03:20:41;102249.22;;;4.65;84.91
84639;BME280;74869;51.924;5.712;2024-03-17T03:23:07;102261.50;;;4.73;84.64
84639;BME280;74869;51.924;5.712;2024-03-17T03:25:32;102268.66;;;4.86;85.14
84639;BME280;74869;51.924;5.712;2024-03-17T03:27:57;102284.00;;;4.97;85.35
84639;BME280;74869;51.924;5.712;2024-03-17T03:30:25;102298.75;;;4.93;85.10
84639;BME280;74869;51.924;5.712;2024-03-17T03:32:52;102272.94;;;4.93;84.91
84639;BME280;74869;51.924;5.712;2024-03-17T03:35:17;102273.16;;;4.92;84.71
84639;BME280;74869;51.924;5.712;2024-03-17T03:37:43;102288.69;;;5.08;84.87
84639;BME280;74869;51.924;5.712;2024-03-17T03:40:09;102276.19;;;5.02;84.89
84639;BME280;74869;51.924;5.712;2024-03-17T03:42:44;102283.97;;;5.10;84.41
84639;BME280;74869;51.924;5.712;2024-03-17T03:45:10;102273.72;;;5.13;84.73
84639;BME280;74869;51.924;5.712;2024-03-17T03:47:42;102281.09;;;5.18;84.87
84639;BME280;74869;51.924;5.712;2024-03-17T03:50:11;102263.88;;;5.14;84.96
84639;BME280;74869;51.924;5.712;2024-03-17T03:52:37;102263.88;;;5.14;85.02
84639;BME280;74869;51.924;5.712;2024-03-17T03:55:04;102258.56;;;5.20;84.87
84639;BME280;74869;51.924;5.712;2024-03-17T03:57:30;102254.03;;;5.21;84.59
84639;BME280;74869;51.924;5.712;2024-03-17T03:59:57;102259.56;;;5.26;84.60
84639;BME280;74869;51.924;5.712;2024-03-17T04:02:22;102255.25;;;5.25;84.48
84639;BME280;74869;51.924;5.712;2024-03-17T04:04:48;102224.97;;;5.13;85.03
84639;BME280;74869;51.924;5.712;2024-03-17T04:07:13;102255.22;;;5.32;84.51
84639;BME280;74869;51.924;5.712;2024-03-17T04:09:39;102237.03;;;5.22;85.05
84639;BME280;74869;51.924;5.712;2024-03-17T04:12:04;102218.41;;;5.22;84.40
84639;BME280;74869;51.924;5.712;2024-03-17T04:14:30;102219.22;;;5.22;84.96
84639;BME280;74869;51.924;5.712;2024-03-17T04:16:56;102205.31;;;5.14;84.95
84639;BME280;74869;51.924;5.712;2024-03-17T04:19:21;102227.00;;;5.31;85.22
84639;BME280;74869;51.924;5.712;2024-03-17T04:21:47;102227.19;;;5.29;84.78
84639;BME280;74869;51.924;5.712;2024-03-17T04:24:12;102231.91;;;5.27;84.78
84639;BME280;74869;51.924;5.712;2024-03-17T04:26:37;102228.63;;;5.25;85.04
84639;BME280;74869;51.924;5.712;2024-03-17T04:29:03;102197.78;;;5.04;84.97
84639;BME280;74869;51.924;5.712;2024-03-17T04:31:30;102223.72;;;5.22;84.99
84639;BME280;74869;51.924;5.712;2024-03-17T04:33:56;102229.06;;;5.22;85.58
84639;BME280;74869;51.924;5.712;2024-03-17T04:36:21;102205.75;;;5.11;85.20
84639;BME280;74869;51.924;5.712;2024-03-17T04:38:47;102210.66;;;5.14;84.86
84639;BME280;74869;51.924;5.712;2024-03-17T04:41:16;102203.69;;;5.13;85.19
84639;BME280;74869;51.924;5.712;2024-03-17T04:43:41;102212.47;;;5.20;85.04
84639;BME280;74869;51.924;5.712;2024-03-17T04:46:07;102211.88;;;5.18;85.05
84639;BME280;74869;51.924;5.712;2024-03-17T04:48:34;102187.34;;;5.03;85.01
84639;BME280;74869;51.924;5.712;2024-03-17T04:51:00;102205.94;;;5.16;85.25
84639;BME280;74869;51.924;5.712;2024-03-17T04:53:26;102188.56;;;5.07;85.13
84639;BME280;74869;51.924;5.712;2024-03-17T04:56:06;102198.97;;;5.15;85.50
84639;BME280;74869;51.924;5.712;2024-03-17T04:58:32;102196.75;;;5.12;85.60
84639;BME280;74869;51.924;5.712;2024-03-17T05:01:04;102182.63;;;5.05;85.05
84639;BME280;74869;51.924;5.712;2024-03-17T05:03:29;102161.97;;;4.94;85.13
84639;BME280;74869;51.924;5.712;2024-03-17T05:05:59;102199.59;;;5.17;85.11
84639;BME280;74869;51.924;5.712;2024-03-17T05:08:27;102182.84;;;5.03;85.20
84639;BME280;74869;51.924;5.712;2024-03-17T05:10:59;102211.66;;;5.19;85.11
84639;BME280;74869;51.924;5.712;2024-03-17T05:13:27;102212.69;;;5.18;85.43
84639;BME280;74869;51.924;5.712;2024-03-17T05:15:54;102217.38;;;5.23;85.11
84639;BME280;74869;51.924;5.712;2024-03-17T05:18:19;102221.69;;;5.24;85.16
84639;BME280;74869;51.924;5.712;2024-03-17T05:20:46;102200.81;;;5.14;84.85
84639;BME280;74869;51.924;5.712;2024-03-17T05:23:12;102212.66;;;5.25;85.56
84639;BME280;74869;51.924;5.712;2024-03-17T05:25:39;102195.91;;;5.18;85.77
84639;BME280;74869;51.924;5.712;2024-03-17T05:28:04;102202.00;;;5.25;85.06
84639;BME280;74869;51.924;5.712;2024-03-17T05:30:29;102198.75;;;5.23;85.16
84639;BME280;74869;51.924;5.712;2024-03-17T05:32:55;102196.69;;;5.25;85.59
84639;BME280;74869;51.924;5.712;2024-03-17T05:35:21;102206.09;;;5.28;85.29
84639;BME280;74869;51.924;5.712;2024-03-17T05:37:46;102209.38;;;5.30;85.18
84639;BME280;74869;51.924;5.712;2024-03-17T05:40:13;102211.84;;;5.31;85.59
84639;BME280;74869;51.924;5.712;2024-03-17T05:42:41;102200.97;;;5.26;85.42
84639;BME280;74869;51.924;5.712;2024-03-17T05:45:07;102175.84;;;5.09;84.93
84639;BME280;74869;51.924;5.712;2024-03-17T05:47:36;102211.63;;;5.26;85.20
84639;BME280;74869;51.924;5.712;2024-03-17T05:50:01;102219.78;;;5.38;85.04
84639;BME280;74869;51.924;5.712;2024-03-17T05:52:26;102219.56;;;5.39;85.33
84639;BME280;74869;51.924;5.712;2024-03-17T05:54:52;102186.47;;;5.22;85.05
84639;BME280;74869;51.924;5.712;2024-03-17T05:57:17;102177.44;;;5.23;85.05
84639;BME280;74869;51.924;5.712;2024-03-17T05:59:43;102200.09;;;5.45;85.03
84639;BME280;74869;51.924;5.712;2024-03-17T06:02:09;102199.66;;;5.48;85.14
84639;BME280;74869;51.924;5.712;2024-03-17T06:04:35;102195.97;;;5.49;85.22
84639;BME280;74869;51.924;5.712;2024-03-17T06:07:00;102213.38;;;5.52;85.21
84639;BME280;74869;51.924;5.712;2024-03-17T06:09:26;102165.13;;;5.29;85.50
84639;BME280;74869;51.924;5.712;2024-03-17T06:11:52;102205.56;;;5.57;85.30
84639;BME280;74869;51.924;5.712;2024-03-17T06:14:17;102209.66;;;5.59;85.73
84639;BME280;74869;51.924;5.712;2024-03-17T06:16:43;102209.25;;;5.62;85.00
84639;BME280;74869;51.924;5.712;2024-03-17T06:19:09;102209.81;;;5.64;85.34
84639;BME280;74869;51.924;5.712;2024-03-17T06:21:34;102167.09;;;5.46;85.30
84639;BME280;74869;51.924;5.712;2024-03-17T06:23:59;102204.25;;;5.73;84.99
84639;BME280;74869;51.924;5.712;2024-03-17T06:26:25;102203.41;;;5.79;85.34
84639;BME280;74869;51.924;5.712;2024-03-17T06:28:52;102209.50;;;5.86;85.19
84639;BME280;74869;51.924;5.712;2024-03-17T06:31:17;102195.56;;;5.90;85.02
84639;BME280;74869;51.924;5.712;2024-03-17T06:33:42;102199.22;;;5.96;85.38
84639;BME280;74869;51.924;5.712;2024-03-17T06:36:08;102200.44;;;6.00;84.66
84639;BME280;74869;51.924;5.712;2024-03-17T06:38:33;102196.31;;;6.04;85.03
84639;BME280;74869;51.924;5.712;2024-03-17T06:40:59;102147.84;;;5.89;84.90
84639;BME280;74869;51.924;5.712;2024-03-17T06:43:24;102166.56;;;6.07;84.89
84639;BME280;74869;51.924;5.712;2024-03-17T06:45:57;102152.00;;;6.03;84.86
84639;BME280;74869;51.924;5.712;2024-03-17T06:48:23;102161.22;;;6.07;84.94
84639;BME280;74869;51.924;5.712;2024-03-17T06:50:48;102161.69;;;6.22;84.90
84639;BME280;74869;51.924;5.712;2024-03-17T06:53:14;102173.22;;;6.41;84.28
84639;BME280;74869;51.924;5.712;2024-03-17T06:55:39;102181.19;;;6.48;84.78
84639;BME280;74869;51.924;5.712;2024-03-17T06:58:04;102167.25;;;6.46;84.03
84639;BME280;74869;51.924;5.712;2024-03-17T07:00:30;102159.84;;;6.48;84.26
84639;BME280;74869;51.924;5.712;2024-03-17T07:02:55;102175.66;;;6.67;84.44
84639;BME280;74869;51.924;5.712;2024-03-17T07:05:20;102184.13;;;6.82;84.18
84639;BME280;74869;51.924;5.712;2024-03-17T07:07:46;102190.91;;;7.03;84.00
84639;BME280;74869;51.924;5.712;2024-03-17T07:10:12;102180.22;;;7.21;83.22
84639;BME280;74869;51.924;5.712;2024-03-17T07:12:38;102194.97;;;7.42;83.06
84639;BME280;74869;51.924;5.712;2024-03-17T07:15:04;102170.41;;;7.34;83.05
84639;BME280;74869;51.924;5.712;2024-03-17T07:17:30;102194.41;;;7.52;82.93
84639;BME280;74869;51.924;5.712;2024-03-17T07:19:55;102184.19;;;7.49;82.66
84639;BME280;74869;51.924;5.712;2024-03-17T07:22:20;102189.06;;;7.52;82.54
84639;BME280;74869;51.924;5.712;2024-03-17T07:24:47;102211.91;;;7.66;82.48
84639;BME280;74869;51.924;5.712;2024-03-17T07:27:14;102178.50;;;7.57;82.67
84639;BME280;74869;51.924;5.712;2024-03-17T07:29:40;102209.19;;;7.84;82.17
84639;BME280;74869;51.924;5.712;2024-03-17T07:32:05;102183.41;;;7.90;82.35
84639;BME280;74869;51.924;5.712;2024-03-17T07:34:32;102197.84;;;8.00;81.85
84639;BME280;74869;51.924;5.712;2024-03-17T07:36:57;102204.75;;;8.20;80.95
84639;BME280;74869;51.924;5.712;2024-03-17T07:39:28;102182.31;;;8.21;80.51
84639;BME280;74869;51.924;5.712;2024-03-17T07:41:55;102189.69;;;8.37;80.27
84639;BME280;74869;51.924;5.712;2024-03-17T07:44:21;102198.44;;;8.44;79.64
84639;BME280;74869;51.924;5.712;2024-03-17T07:46:47;102188.19;;;8.41;79.35
84639;BME280;74869;51.924;5.712;2024-03-17T07:49:13;102207.84;;;8.47;78.68
84639;BME280;74869;51.924;5.712;2024-03-17T07:51:39;102202.38;;;8.53;78.18
84639;BME280;74869;51.924;5.712;2024-03-17T07:54:05;102195.16;;;8.65;78.63
84639;BME280;74869;51.924;5.712;2024-03-17T07:56:30;102188.75;;;8.78;78.42
84639;BME280;74869;51.924;5.712;2024-03-17T07:58:55;102184.19;;;8.90;77.70
84639;BME280;74869;51.924;5.712;2024-03-17T08:01:21;102174.91;;;8.93;77.12
84639;BME280;74869;51.924;5.712;2024-03-17T08:03:47;102182.66;;;9.17;77.76
84639;BME280;74869;51.924;5.712;2024-03-17T08:06:20;102170.84;;;9.30;76.96
84639;BME280;74869;51.924;5.712;2024-03-17T08:08:46;102169.69;;;9.54;76.31
84639;BME280;74869;51.924;5.712;2024-03-17T08:11:11;102147.06;;;9.62;75.68
84639;BME280;74869;51.924;5.712;2024-03-17T08:13:36;102157.91;;;9.84;75.12
84639;BME280;74869;51.924;5.712;2024-03-17T08:16:04;102168.88;;;9.99;74.59
84639;BME280;74869;51.924;5.712;2024-03-17T08:18:36;102156.28;;;9.99;74.34
84639;BME280;74869;51.924;5.712;2024-03-17T08:21:02;102172.53;;;10.21;74.04
84639;BME280;74869;51.924;5.712;2024-03-17T08:23:31;102171.53;;;10.27;73.71
84639;BME280;74869;51.924;5.712;2024-03-17T08:25:58;102150.38;;;10.14;73.05
84639;BME280;74869;51.924;5.712;2024-03-17T08:28:25;102175.78;;;10.23;72.58
84639;BME280;74869;51.924;5.712;2024-03-17T08:30:55;102180.00;;;10.19;72.81
84639;BME280;74869;51.924;5.712;2024-03-17T08:33:21;102172.41;;;10.16;73.01
84639;BME280;74869;51.924;5.712;2024-03-17T08:36:08;102188.63;;;10.21;72.84
84639;BME280;74869;51.924;5.712;2024-03-17T08:38:35;102182.94;;;10.18;72.97
84639;BME280;74869;51.924;5.712;2024-03-17T08:41:09;102157.75;;;10.07;73.18
84639;BME280;74869;51.924;5.712;2024-03-17T08:43:34;102171.84;;;10.14;73.36
84639;BME280;74869;51.924;5.712;2024-03-17T08:46:06;102176.25;;;10.20;72.67
84639;BME280;74869;51.924;5.712;2024-03-17T08:48:34;102177.97;;;10.26;72.73
84639;BME280;74869;51.924;5.712;2024-03-17T08:51:01;102172.03;;;10.24;72.57
84639;BME280;74869;51.924;5.712;2024-03-17T08:53:27;102178.03;;;10.31;72.58
84639;BME280;74869;51.924;5.712;2024-03-17T08:55:53;102150.53;;;10.24;72.95
84639;BME280;74869;51.924;5.712;2024-03-17T08:58:19;102166.84;;;10.34;72.49
84639;BME280;74869;51.924;5.712;2024-03-17T09:00:45;102158.44;;;10.31;72.31
84639;BME280;74869;51.924;5.712;2024-03-17T09:03:11;102159.50;;;10.47;72.78
84639;BME280;74869;51.924;5.712;2024-03-17T09:05:38;102148.88;;;10.57;72.60
84639;BME280;74869;51.924;5.712;2024-03-17T09:08:05;102157.94;;;10.67;72.71
84639;BME280;74869;51.924;5.712;2024-03-17T09:10:30;102146.44;;;10.72;71.53
84639;BME280;74869;51.924;5.712;2024-03-17T09:12:56;102142.16;;;10.76;72.13
84639;BME280;74869;51.924;5.712;2024-03-17T09:15:22;102154.53;;;10.94;71.30
84639;BME280;74869;51.924;5.712;2024-03-17T09:17:47;102151.13;;;11.03;70.79
84639;BME280;74869;51.924;5.712;2024-03-17T09:20:13;102153.63;;;11.10;70.61
84639;BME280;74869;51.924;5.712;2024-03-17T09:22:40;102127.47;;;11.00;70.04
84639;BME280;74869;51.924;5.712;2024-03-17T09:25:06;102142.69;;;11.16;70.54
84639;BME280;74869;51.924;5.712;2024-03-17T09:27:35;102149.47;;;11.19;70.29
84639;BME280;74869;51.924;5.712;2024-03-17T09:30:04;102147.06;;;11.22;69.83
84639;BME280;74869;51.924;5.712;2024-03-17T09:32:37;102146.06;;;11.29;69.56
84639;BME280;74869;51.924;5.712;2024-03-17T09:35:04;102147.13;;;11.27;69.95
84639;BME280;74869;51.924;5.712;2024-03-17T09:37:30;102142.31;;;11.30;69.51
84639;BME280;74869;51.924;5.712;2024-03-17T09:39:57;102120.22;;;11.27;69.67
84639;BME280;74869;51.924;5.712;2024-03-17T09:42:23;102132.78;;;11.44;69.60
84639;BME280;74869;51.924;5.712;2024-03-17T09:44:50;102129.72;;;11.35;68.80
84639;BME280;74869;51.924;5.712;2024-03-17T09:47:20;102139.94;;;11.60;69.17
84639;BME280;74869;51.924;5.712;2024-03-17T09:49:47;102119.38;;;11.49;68.75
84639;BME280;74869;51.924;5.712;2024-03-17T09:52:20;102103.84;;;11.56;68.44
84639;BME280;74869;51.924;5.712;2024-03-17T09:54:46;102075.13;;;11.35;68.27
84639;BME280;74869;51.924;5.712;2024-03-17T09:57:16;102139.34;;;11.80;67.81
84639;BME280;74869;51.924;5.712;2024-03-17T09:59:42;102109.25;;;11.56;68.04
84639;BME280;74869;51.924;5.712;2024-03-17T10:02:16;102083.94;;;11.52;67.71
84639;BME280;74869;51.924;5.712;2024-03-17T10:04:43;102132.72;;;11.92;68.05
84639;BME280;74869;51.924;5.712;2024-03-17T10:07:09;102136.63;;;12.07;67.58
84639;BME280;74869;51.924;5.712;2024-03-17T10:09:34;102137.22;;;12.14;67.07
84639;BME280;74869;51.924;5.712;2024-03-17T10:12:02;102069.72;;;11.88;67.53
84639;BME280;74869;51.924;5.712;2024-03-17T10:14:28;102108.50;;;12.29;67.14
84639;BME280;74869;51.924;5.712;2024-03-17T10:16:53;102098.63;;;12.40;66.42
84639;BME280;74869;51.924;5.712;2024-03-17T10:19:23;102111.69;;;12.68;66.67
84639;BME280;74869;51.924;5.712;2024-03-17T10:21:49;102088.53;;;12.67;66.29
84639;BME280;74869;51.924;5.712;2024-03-17T10:24:25;102121.00;;;12.98;66.11
84639;BME280;74869;51.924;5.712;2024-03-17T10:26:52;102118.59;;;13.06;65.41
84639;BME280;74869;51.924;5.712;2024-03-17T10:32:16;102109.44;;;13.07;65.36
84639;BME280;74869;51.924;5.712;2024-03-17T10:34:44;102114.13;;;13.27;65.49
84639;BME280;74869;51.924;5.712;2024-03-17T10:37:14;102116.31;;;13.35;65.31
84639;BME280;74869;51.924;5.712;2024-03-17T10:39:43;102097.88;;;13.12;65.31
84639;BME280;74869;51.924;5.712;2024-03-17T10:42:12;102113.56;;;13.20;65.30
84639;BME280;74869;51.924;5.712;2024-03-17T10:44:40;102107.06;;;13.16;65.26
84639;BME280;74869;51.924;5.712;2024-03-17T10:47:07;102088.91;;;13.01;65.39
84639;BME280;74869;51.924;5.712;2024-03-17T10:49:36;102109.50;;;13.17;65.67
84639;BME280;74869;51.924;5.712;2024-03-17T10:52:05;102113.56;;;13.25;65.80
84639;BME280;74869;51.924;5.712;2024-03-17T10:54:31;102111.97;;;13.29;65.17
84639;BME280;74869;51.924;5.712;2024-03-17T10:57:11;102117.94;;;13.36;65.20
84639;BME280;74869;51.924;5.712;2024-03-17T10:59:40;102114.69;;;13.39;65.05
84639;BME280;74869;51.924;5.712;2024-03-17T11:02:26;102100.66;;;13.42;65.07
84639;BME280;74869;51.924;5.712;2024-03-17T11:05:02;102094.97;;;13.39;65.02
84639;BME280;74869;51.924;5.712;2024-03-17T11:07:29;102090.16;;;13.56;65.16
84639;BME280;74869;51.924;5.712;2024-03-17T11:09:57;102098.78;;;13.58;64.89
84639;BME280;74869;51.924;5.712;2024-03-17T11:12:50;102086.69;;;13.76;64.99
84639;BME280;74869;51.924;5.712;2024-03-17T11:17:48;102095.03;;;13.89;64.16
84639;BME280;74869;51.924;5.712;2024-03-17T11:20:14;102088.28;;;13.87;63.97
84639;BME280;74869;51.924;5.712;2024-03-17T11:22:44;102081.81;;;13.88;63.75
84639;BME280;74869;51.924;5.712;2024-03-17T11:27:50;102053.72;;;13.84;63.60
84639;BME280;74869;51.924;5.712;2024-03-17T11:39:02;102061.00;;;13.98;63.41
84639;BME280;74869;51.924;5.712;2024-03-17T11:46:57;102064.00;;;13.82;64.00
84639;BME280;74869;51.924;5.712;2024-03-17T11:49:24;102081.78;;;13.83;64.34
84639;BME280;74869;51.924;5.712;2024-03-17T11:51:51;102081.78;;;13.78;63.98
84639;BME280;74869;51.924;5.712;2024-03-17T11:54:22;102018.88;;;13.21;64.15
84639;BME280;74869;51.924;5.712;2024-03-17T11:56:50;102079.63;;;13.59;64.48
84639;BME280;74869;51.924;5.712;2024-03-17T11:59:16;102062.09;;;13.47;64.73
84639;BME280;74869;51.924;5.712;2024-03-17T12:01:53;102077.19;;;13.48;65.04
84639;BME280;74869;51.924;5.712;2024-03-17T12:04:23;102081.22;;;13.40;65.57
84639;BME280;74869;51.924;5.712;2024-03-17T12:06:54;102051.50;;;13.15;65.76
84639;BME280;74869;51.924;5.712;2024-03-17T12:12:03;102060.16;;;13.17;66.12
84639;BME280;74869;51.924;5.712;2024-03-17T12:14:32;102075.03;;;13.30;66.55
84639;BME280;74869;51.924;5.712;2024-03-17T12:16:59;102063.41;;;13.29;66.49
84639;BME280;74869;51.924;5.712;2024-03-17T12:19:25;102061.25;;;13.26;66.45
84639;BME280;74869;51.924;5.712;2024-03-17T12:21:55;102069.06;;;13.33;66.71
84639;BME280;74869;51.924;5.712;2024-03-17T12:24:24;102046.94;;;13.25;66.35
84639;BME280;74869;51.924;5.712;2024-03-17T12:26:52;102062.88;;;13.32;66.22
84639;BME280;74869;51.924;5.712;2024-03-17T12:29:29;102055.31;;;13.34;66.28
84639;BME280;74869;51.924;5.712;2024-03-17T12:31:59;102027.53;;;13.29;66.41
84639;BME280;74869;51.924;5.712;2024-03-17T12:34:27;102035.91;;;13.52;66.49
84639;BME280;74869;51.924;5.712;2024-03-17T12:36:55;102031.06;;;13.59;65.99
84639;BME280;74869;51.924;5.712;2024-03-17T12:39:30;102039.16;;;13.75;66.01
84639;BME280;74869;51.924;5.712;2024-03-17T12:42:09;102033.75;;;13.85;66.04
84639;BME280;74869;51.924;5.712;2024-03-17T12:44:57;102034.03;;;13.88;65.74
84639;BME280;74869;51.924;5.712;2024-03-17T12:47:22;102016.19;;;13.87;65.28
84639;BME280;74869;51.924;5.712;2024-03-17T12:49:50;102018.06;;;13.97;65.53
84639;BME280;74869;51.924;5.712;2024-03-17T12:52:18;102003.75;;;13.96;65.41
84639;BME280;74869;51.924;5.712;2024-03-17T12:54:45;102005.38;;;13.97;65.37
84639;BME280;74869;51.924;5.712;2024-03-17T12:57:20;102007.25;;;14.02;65.73
84639;BME280;74869;51.924;5.712;2024-03-17T13:00:16;101994.03;;;13.90;65.16
84639;BME280;74869;51.924;5.712;2024-03-17T13:02:58;102007.03;;;13.88;65.07
84639;BME280;74869;51.924;5.712;2024-03-17T13:05:23;101965.47;;;13.59;65.25
84639;BME280;74869;51.924;5.712;2024-03-17T13:07:49;101998.09;;;13.83;65.21
84639;BME280;74869;51.924;5.712;2024-03-17T13:10:18;101986.25;;;13.74;64.96
84639;BME280;74869;51.924;5.712;2024-03-17T13:12:45;101994.31;;;13.84;65.53
84639;BME280;74869;51.924;5.712;2024-03-17T13:15:17;101985.16;;;13.75;65.13
84639;BME280;74869;51.924;5.712;2024-03-17T13:17:46;101994.88;;;13.81;65.40
84639;BME280;74869;51.924;5.712;2024-03-17T13:20:15;101994.34;;;13.89;65.17
84639;BME280;74869;51.924;5.712;2024-03-17T13:22:44;101985.66;;;13.92;65.23
84639;BME280;74869;51.924;5.712;2024-03-17T13:25:15;101965.72;;;13.78;65.25